Astra 1 — T8A2557 — position and weather

sailwx.info

Track history (hours):
 
Tides and Currents Weather Stations Pressure Air Temp Water Temp Dewpoint Dewpoint Depression Visibility Wind Speed Wind Dir Waves Ship Positions

Astra 1

Last reported at 2017-Dec-08 13:43 UTC. Time now 2017-Dec-14 00:14 UTC.
Position N 45°10' E 036°28'.

Length 107 m; draft 3.5 m.

Type: Cargo ship. MMSI: 511421000.

Date/timePositionNaut miles runAvg speedWind from/ knotsBaromVisibWave heightAir tempDewpointWater temp
2017-Dec-08 13:43N 45°10' E 036°28'2 7.3
2017-Dec-08 13:29N 45°11' E 036°28'4 7.2
2017-Dec-08 13:00N 45°15' E 036°28'3 6.3
2017-Dec-08 12:30N 45°18' E 036°29'3 6.9
2017-Dec-08 12:00N 45°19' E 036°34'3 6.8
2017-Dec-08 11:30N 45°20' E 036°38'3 5.6
2017-Dec-08 11:00N 45°23' E 036°40'3 6.1
2017-Dec-08 10:30N 45°25' E 036°43'3 6.9
2017-Dec-08 10:00N 45°28' E 036°46'2 0.4
2017-Dec-08 03:46N 45°29' E 036°48'1 3.2
2017-Dec-08 03:29N 45°29' E 036°47'2 5.1
2017-Dec-08 03:00N 45°31' E 036°44'  
2017-Dec-02 14:39N 45°31' E 036°45'2 7.9
2017-Dec-02 14:22N 45°29' E 036°43'3 7.7
2017-Dec-02 14:00N 45°26' E 036°41'4 7.7
2017-Dec-02 13:30N 45°22' E 036°40'3 6.3
2017-Dec-02 13:00N 45°20' E 036°37'4 7.5
2017-Dec-02 12:30N 45°19' E 036°32'3 6.6
2017-Dec-02 12:00N 45°17' E 036°29'3 6.4
2017-Dec-02 11:30N 45°14' E 036°30'1 0.8
2017-Dec-02 10:18N 45°13' E 036°31'0 0.0
2017-Dec-02 06:30N 45°13' E 036°31'0 0.0
2017-Dec-02 04:06N 45°13' E 036°31'0 0.0
2017-Dec-02 03:51N 45°13' E 036°31'0 0.0
2017-Dec-01 21:15N 45°13' E 036°31'2 3.9
2017-Dec-01 20:52N 45°12' E 036°29'2 6.0
2017-Dec-01 20:30N 45°10' E 036°28'  
Track history (hours):
 
Tides and Currents Weather Stations Pressure Air Temp Water Temp Dewpoint Dewpoint Depression Visibility Wind Speed Wind Dir Waves Ship Positions

Astra 1

Last reported at 2017-Dec-08 13:43 UTC. Time now 2017-Dec-14 00:14 UTC.
Position N 45°10' E 036°28'.

Length 107 m; draft 3.5 m.

Type: Cargo ship. MMSI: 511421000.

Date/timePositionNaut miles runAvg speedWind from/ knotsBaromVisibWave heightAir tempDewpointWater temp
2017-Dec-08 13:43N 45°10' E 036°28'2 7.3
2017-Dec-08 13:29N 45°11' E 036°28'4 7.2
2017-Dec-08 13:00N 45°15' E 036°28'3 6.3
2017-Dec-08 12:30N 45°18' E 036°29'3 6.9
2017-Dec-08 12:00N 45°19' E 036°34'3 6.8
2017-Dec-08 11:30N 45°20' E 036°38'3 5.6
2017-Dec-08 11:00N 45°23' E 036°40'3 6.1
2017-Dec-08 10:30N 45°25' E 036°43'3 6.9
2017-Dec-08 10:00N 45°28' E 036°46'2 0.4
2017-Dec-08 03:46N 45°29' E 036°48'1 3.2
2017-Dec-08 03:29N 45°29' E 036°47'2 5.1
2017-Dec-08 03:00N 45°31' E 036°44'  
2017-Dec-02 14:39N 45°31' E 036°45'2 7.9
2017-Dec-02 14:22N 45°29' E 036°43'3 7.7
2017-Dec-02 14:00N 45°26' E 036°41'4 7.7
2017-Dec-02 13:30N 45°22' E 036°40'3 6.3
2017-Dec-02 13:00N 45°20' E 036°37'4 7.5
2017-Dec-02 12:30N 45°19' E 036°32'3 6.6
2017-Dec-02 12:00N 45°17' E 036°29'3 6.4
2017-Dec-02 11:30N 45°14' E 036°30'1 0.8
2017-Dec-02 10:18N 45°13' E 036°31'0 0.0
2017-Dec-02 06:30N 45°13' E 036°31'0 0.0
2017-Dec-02 04:06N 45°13' E 036°31'0 0.0
2017-Dec-02 03:51N 45°13' E 036°31'0 0.0
2017-Dec-01 21:15N 45°13' E 036°31'2 3.9
2017-Dec-01 20:52N 45°12' E 036°29'2 6.0
2017-Dec-01 20:30N 45°10' E 036°28'  

Dump ship's entire track history